Time;durP1;ratioP1;P1;durP2;ratioP2;P2;SDS_P1;SDS_P2;PMS_P1;PMS_P2;Temp;Humidity;BMP_temperature;BMP_pressure;BME280_temperature;BME280_humidity;BME280_pressure;Samples;Min_cycle;Max_cycle;Signal;HPM_P1;HPM_P2
2021/04/21 00:01:12;;;;;;;2.15;1.05;;;8.10;72.40;;;;;;5008130;28;20026;-73
2021/04/21 00:03:37;;;;;;;2.55;0.95;;;8.10;72.00;;;;;;5008156;28;20009;-73
2021/04/21 00:06:03;;;;;;;1.63;1.08;;;8.10;72.80;;;;;;5024350;28;20013;-73
2021/04/21 00:08:29;;;;;;;1.60;0.90;;;8.00;72.60;;;;;;5044575;28;20059;-73
2021/04/21 00:10:55;;;;;;;1.65;0.90;;;8.00;72.80;;;;;;5045210;28;20007;-73
2021/04/21 00:13:22;;;;;;;2.05;1.00;;;8.00;73.00;;;;;;5045197;28;20037;-74
2021/04/21 00:15:48;;;;;;;1.45;0.90;;;7.90;72.90;;;;;;5028538;28;20028;-73
2021/04/21 00:18:13;;;;;;;1.17;0.73;;;7.90;72.40;;;;;;5044656;28;20021;-73
2021/04/21 00:20:39;;;;;;;0.80;0.80;;;7.90;72.40;;;;;;5061492;28;20035;-73
2021/04/21 00:23:06;;;;;;;1.33;0.90;;;7.90;72.10;;;;;;5044721;28;20013;-73
2021/04/21 00:25:33;;;;;;;0.77;0.50;;;8.00;71.90;;;;;;5061308;28;20314;-73
2021/04/21 00:27:59;;;;;;;3.05;1.10;;;8.00;71.60;;;;;;5061393;28;20085;-73
2021/04/21 00:30:26;;;;;;;2.17;0.80;;;8.00;71.40;;;;;;5028443;28;20318;-73
2021/04/21 00:32:52;;;;;;;1.73;0.70;;;8.00;71.20;;;;;;5044932;28;20012;-73
2021/04/21 00:35:21;;;;;;;1.65;0.80;;;8.00;71.40;;;;;;5044324;28;20025;-73
2021/04/21 00:37:46;;;;;;;0.82;0.60;;;8.00;70.60;;;;;;5061249;28;20283;-73
2021/04/21 00:40:15;;;;;;;1.77;0.90;;;8.00;70.50;;;;;;5028133;28;20084;-73
2021/04/21 00:42:45;;;;;;;0.63;0.57;;;8.10;70.40;;;;;;5044736;28;20218;-73
2021/04/21 00:45:13;;;;;;;1.58;0.80;;;8.10;70.80;;;;;;5044670;28;20016;-73
2021/04/21 00:47:44;;;;;;;1.80;0.70;;;8.00;70.20;;;;;;5061152;28;20017;-73
2021/04/21 00:50:15;;;;;;;1.33;0.68;;;8.00;70.50;;;;;;5044515;28;20020;-73
2021/04/21 00:52:55;;;;;;;1.30;0.65;;;8.10;70.20;;;;;;5061249;28;20013;-73
2021/04/21 00:55:45;;;;;;;0.75;0.52;;;8.10;70.20;;;;;;5044320;28;20086;-73
2021/04/21 00:58:17;;;;;;;0.90;0.50;;;8.00;71.20;;;;;;5058162;28;20033;-73
2021/04/21 01:00:46;;;;;;;2.25;0.93;;;8.00;70.70;;;;;;5045265;28;20020;-73
2021/04/21 01:03:21;;;;;;;1.55;0.77;;;8.10;71.20;;;;;;5031124;28;20246;-73
2021/04/21 01:05:57;;;;;;;1.67;0.90;;;8.10;71.40;;;;;;5048178;28;20009;-73
2021/04/21 01:08:26;;;;;;;1.10;0.82;;;8.10;71.50;;;;;;5032218;28;20017;-74
2021/04/21 01:11:02;;;;;;;1.55;0.80;;;8.10;71.70;;;;;;5048065;28;20016;-73
2021/04/21 01:13:43;;;;;;;1.35;0.70;;;8.20;71.70;;;;;;5048061;28;20009;-73
2021/04/21 01:16:11;;;;;;;1.38;0.80;;;8.20;72.00;;;;;;5048058;28;20035;-73
2021/04/21 01:18:38;;;;;;;1.70;0.85;;;8.10;72.20;;;;;;5047677;28;20009;-74
2021/04/21 01:21:12;;;;;;;1.83;1.00;;;8.10;72.60;;;;;;5047881;28;20017;-73
2021/04/21 01:23:52;;;;;;;2.50;1.10;;;8.10;73.70;;;;;;5047640;28;20012;-73
2021/04/21 01:26:18;;;;;;;1.67;0.80;;;8.00;73.90;;;;;;5059215;28;20076;-73
2021/04/21 01:28:46;;;;;;;0.75;0.63;;;8.00;74.00;;;;;;5065529;28;20037;-73
2021/04/21 01:31:12;;;;;;;2.05;0.98;;;8.00;74.30;;;;;;5055149;28;20006;-73
2021/04/21 01:33:37;;;;;;;2.30;1.10;;;8.00;75.10;;;;;;5056326;28;20261;-73
2021/04/21 01:36:04;;;;;;;2.42;0.95;;;8.00;74.80;;;;;;5064150;28;20009;-73
2021/04/21 01:38:31;;;;;;;4.47;2.00;;;8.00;75.40;;;;;;5063766;28;20013;-73
2021/04/21 01:40:58;;;;;;;1.83;1.30;;;8.00;76.40;;;;;;5047736;28;20055;-73
2021/04/21 01:44:01;;;;;;;2.33;1.50;;;8.00;76.50;;;;;;5047592;28;20084;-73
2021/04/21 01:46:28;;;;;;;5.18;2.78;;;8.00;76.80;;;;;;5030565;28;20017;-73
2021/04/21 01:49:01;;;;;;;4.55;2.10;;;8.00;78.80;;;;;;5047004;28;20013;-73
2021/04/21 01:51:33;;;;;;;4.97;2.30;;;8.00;79.60;;;;;;5063877;28;20005;-73
2021/04/21 01:54:16;;;;;;;3.80;2.13;;;8.00;81.40;;;;;;5046806;28;20350;-73
2021/04/21 01:56:54;;;;;;;4.53;2.40;;;8.00;81.60;;;;;;5046916;28;20043;-73
2021/04/21 01:59:38;;;;;;;3.88;2.58;;;8.00;81.70;;;;;;5047021;28;20268;-73
2021/04/21 02:02:27;;;;;;;6.38;3.55;;;8.00;82.90;;;;;;5064546;28;20012;-73
2021/04/21 02:05:24;;;;;;;8.13;3.40;;;8.00;83.20;;;;;;5063128;28;20103;-73
2021/04/21 02:08:11;;;;;;;3.90;2.83;;;8.00;85.00;;;;;;5064506;28;20330;-73
2021/04/21 02:10:55;;;;;;;8.20;4.05;;;8.00;85.00;;;;;;5063285;28;20076;-73
2021/04/21 02:13:33;;;;;;;10.15;4.07;;;8.00;85.90;;;;;;5063497;28;20239;-73
2021/04/21 02:16:14;;;;;;;6.75;3.75;;;8.10;86.90;;;;;;5063127;28;20021;-73
2021/04/21 02:18:52;;;;;;;7.67;3.17;;;8.10;87.20;;;;;;5063167;28;20016;-73
2021/04/21 02:21:42;;;;;;;4.40;2.70;;;8.10;87.40;;;;;;5063234;28;20031;-74
2021/04/21 02:24:52;;;;;;;3.83;2.40;;;8.00;87.40;;;;;;5063131;28;20029;-73
2021/04/21 02:27:41;;;;;;;3.92;1.85;;;8.00;87.30;;;;;;5058923;28;20322;-73
2021/04/21 02:30:41;;;;;;;3.88;2.55;;;8.00;87.50;;;;;;5053042;28;20381;-73
2021/04/21 02:33:17;;;;;;;4.63;2.50;;;8.00;87.60;;;;;;5048991;28;20056;-73
2021/04/21 02:35:48;;;;;;;4.90;3.42;;;7.90;87.70;;;;;;5062803;28;20051;-73
2021/04/21 02:38:34;;;;;;;5.10;3.15;;;7.90;88.30;;;;;;5062853;28;20020;-73
2021/04/21 02:41:09;;;;;;;4.03;2.28;;;7.90;88.00;;;;;;5042747;28;20009;-73
2021/04/21 02:44:05;;;;;;;2.97;1.92;;;7.90;88.10;;;;;;5043754;28;20596;-73
2021/04/21 02:46:41;;;;;;;2.83;1.80;;;7.90;88.70;;;;;;5050119;28;20013;-73
2021/04/21 02:49:25;;;;;;;2.63;1.60;;;7.90;88.40;;;;;;5062642;28;20295;-73
2021/04/21 02:52:06;;;;;;;3.50;2.03;;;7.90;88.50;;;;;;5063712;28;20017;-73
2021/04/21 02:54:37;;;;;;;2.35;1.73;;;7.90;89.00;;;;;;5062166;28;20057;-73
2021/04/21 02:57:31;;;;;;;2.67;2.08;;;7.90;89.50;;;;;;5063478;28;20040;-73
2021/04/21 03:00:00;;;;;;;3.25;2.22;;;7.90;89.40;;;;;;5044691;28;20050;-73
2021/04/21 03:02:32;;;;;;;4.03;2.20;;;8.00;89.80;;;;;;5046329;28;20286;-73
2021/04/21 03:05:21;;;;;;;2.25;1.90;;;8.00;89.80;;;;;;5063325;28;20005;-73
2021/04/21 03:07:57;;;;;;;2.88;2.13;;;7.90;90.00;;;;;;5060009;28;20016;-73
2021/04/21 03:10:25;;;;;;;4.80;2.67;;;7.90;90.10;;;;;;5045871;28;20078;-73
2021/04/21 03:12:59;;;;;;;5.65;3.28;;;7.80;90.30;;;;;;5045750;28;20017;-73
2021/04/21 03:15:25;;;;;;;6.22;3.42;;;7.80;90.50;;;;;;5045559;28;20017;-73
2021/04/21 03:17:52;;;;;;;5.10;3.00;;;7.80;90.70;;;;;;5045543;28;20040;-73
2021/04/21 03:20:19;;;;;;;5.28;2.92;;;7.80;90.50;;;;;;5045854;28;20009;-73
2021/04/21 03:22:47;;;;;;;3.38;2.20;;;7.80;90.60;;;;;;5045603;28;20005;-73
2021/04/21 03:25:19;;;;;;;4.57;3.08;;;7.80;90.60;;;;;;5045414;28;20011;-73
2021/04/21 03:27:50;;;;;;;9.20;4.18;;;7.80;90.90;;;;;;5062329;28;20063;-73
2021/04/21 03:30:16;;;;;;;7.60;5.00;;;7.80;91.00;;;;;;5063666;28;20013;-73
2021/04/21 03:33:07;;;;;;;6.57;4.15;;;7.70;91.40;;;;;;5045344;28;20082;-73
2021/04/21 03:35:33;;;;;;;4.88;3.75;;;7.80;91.50;;;;;;5062022;28;20318;-73
2021/04/21 03:38:17;;;;;;;5.82;3.85;;;7.70;91.50;;;;;;5061916;28;20035;-74
2021/04/21 03:40:42;;;;;;;9.55;4.93;;;7.80;91.80;;;;;;5061694;28;20010;-73
2021/04/21 03:43:09;;;;;;;10.88;5.47;;;7.80;92.00;;;;;;5045124;28;20013;-73
2021/04/21 03:45:35;;;;;;;8.80;5.63;;;7.80;92.10;;;;;;5028931;28;20024;-73
2021/04/21 03:48:01;;;;;;;10.02;5.78;;;7.80;92.20;;;;;;5028500;28;20084;-73
2021/04/21 03:50:26;;;;;;;8.23;5.03;;;7.70;92.30;;;;;;5045254;28;20008;-73
2021/04/21 03:52:54;;;;;;;6.57;4.35;;;7.80;92.40;;;;;;5062679;28;20028;-73
2021/04/21 03:55:20;;;;;;;7.07;4.80;;;7.80;92.30;;;;;;5018509;28;20045;-73
2021/04/21 03:57:47;;;;;;;5.80;3.85;;;7.80;92.40;;;;;;5041955;28;20021;-73
2021/04/21 04:00:17;;;;;;;5.07;3.30;;;7.80;92.50;;;;;;5045786;28;20005;-73
2021/04/21 04:02:51;;;;;;;5.53;3.80;;;7.90;92.30;;;;;;5045058;28;20013;-73
2021/04/21 04:05:22;;;;;;;6.40;2.97;;;7.90;92.30;;;;;;5061046;28;20009;-73
2021/04/21 04:07:47;;;;;;;5.90;3.17;;;7.90;92.20;;;;;;5061781;28;20013;-74
2021/04/21 04:10:13;;;;;;;3.72;2.47;;;7.90;92.20;;;;;;5061523;28;20261;-73
2021/04/21 04:12:42;;;;;;;6.20;4.13;;;7.90;92.10;;;;;;5044851;28;20032;-73
2021/04/21 04:15:08;;;;;;;6.10;3.65;;;7.90;92.30;;;;;;5061346;28;20021;-73
2021/04/21 04:17:34;;;;;;;3.08;2.30;;;8.00;92.30;;;;;;5041242;28;20048;-74
2021/04/21 04:19:59;;;;;;;3.88;2.42;;;8.00;92.30;;;;;;5025208;28;20010;-73
2021/04/21 04:22:25;;;;;;;3.88;2.50;;;8.00;92.20;;;;;;5061430;28;20025;-74
2021/04/21 04:24:52;;;;;;;4.68;2.88;;;8.10;92.20;;;;;;5022646;28;20017;-74
2021/04/21 04:27:22;;;;;;;7.90;3.47;;;8.10;92.10;;;;;;5044960;28;20062;-74
2021/04/21 04:29:51;;;;;;;6.70;4.25;;;8.20;92.00;;;;;;5028275;28;20040;-74
2021/04/21 04:32:21;;;;;;;6.47;4.57;;;8.30;91.80;;;;;;5061624;28;20013;-74
2021/04/21 04:34:51;;;;;;;5.65;3.72;;;8.30;91.90;;;;;;5025212;28;20025;-74
2021/04/21 04:37:18;;;;;;;5.13;3.70;;;8.30;91.90;;;;;;5057783;28;20080;-73
2021/04/21 04:39:44;;;;;;;7.20;4.57;;;8.30;91.90;;;;;;5072075;28;20016;-73
2021/04/21 04:42:10;;;;;;;6.15;3.50;;;8.30;91.90;;;;;;5073778;28;20072;-73
2021/04/21 04:44:37;;;;;;;5.32;3.50;;;8.40;91.80;;;;;;5074221;28;20047;-73
2021/04/21 04:47:04;;;;;;;5.15;3.03;;;8.40;91.60;;;;;;5074193;28;20078;-72
2021/04/21 04:49:32;;;;;;;7.28;3.25;;;8.50;91.60;;;;;;5072660;28;20065;-73
2021/04/21 04:51:57;;;;;;;9.10;5.03;;;8.60;91.40;;;;;;5075257;28;20013;-73
2021/04/21 04:54:23;;;;;;;6.00;3.30;;;8.70;91.30;;;;;;5075805;28;20056;-73
2021/04/21 04:56:48;;;;;;;5.97;3.92;;;8.70;91.20;;;;;;5058557;28;20008;-73
2021/04/21 04:59:14;;;;;;;7.25;5.00;;;8.80;91.10;;;;;;5058609;28;20020;-73
2021/04/21 05:01:57;;;;;;;7.28;4.70;;;8.80;91.00;;;;;;5075032;28;20231;-73
2021/04/21 05:04:31;;;;;;;6.78;5.32;;;8.70;91.00;;;;;;5074726;28;20016;-73
2021/04/21 05:07:00;;;;;;;6.85;4.95;;;8.70;91.10;;;;;;5075266;28;20013;-73
2021/04/21 05:09:28;;;;;;;8.35;5.68;;;8.70;91.10;;;;;;5059245;28;20012;-73
2021/04/21 05:11:56;;;;;;;11.35;8.98;;;8.70;91.10;;;;;;5078200;28;20016;-73
2021/04/21 05:14:22;;;;;;;8.68;6.05;;;8.60;91.20;;;;;;5076971;28;20072;-73
2021/04/21 05:17:03;;;;;;;9.52;6.22;;;8.60;91.30;;;;;;5077666;28;20214;-73
2021/04/21 05:20:26;;;;;;;11.27;9.10;;;8.60;91.40;;;;;;5078066;28;19997;-73
2021/04/21 05:23:03;;;;;;;;;;;8.50;91.50;;;;;;5054611;28;20010;-73
2021/04/21 05:25:50;;;;;;;17.58;11.02;;;8.40;91.50;;;;;;5036603;28;19901;-73
2021/04/21 05:28:22;;;;;;;19.98;13.95;;;8.40;91.60;;;;;;5056523;28;20025;-73
2021/04/21 05:31:36;;;;;;;18.85;13.63;;;8.30;91.90;;;;;;5078112;28;20015;-73
2021/04/21 05:34:39;;;;;;;14.68;10.73;;;8.20;91.90;;;;;;5052545;28;20044;-73
2021/04/21 05:37:33;;;;;;;13.82;9.68;;;8.30;92.10;;;;;;5076103;28;20055;-73
2021/04/21 05:40:47;;;;;;;11.98;8.38;;;8.30;92.00;;;;;;5077504;28;20013;-73
2021/04/21 05:43:51;;;;;;;9.27;6.93;;;8.30;92.00;;;;;;5064633;28;20025;-73
2021/04/21 05:46:58;;;;;;;11.38;8.20;;;8.40;91.90;;;;;;5065131;28;20315;-73
2021/04/21 05:49:38;;;;;;;9.20;6.90;;;8.40;91.80;;;;;;5067311;28;20029;-73
2021/04/21 05:52:29;;;;;;;9.95;6.03;;;8.40;91.90;;;;;;5054327;28;20073;-73
2021/04/21 05:55:19;;;;;;;10.38;7.43;;;8.50;91.80;;;;;;5066835;28;20045;-73
2021/04/21 05:57:54;;;;;;;13.93;10.02;;;8.40;91.90;;;;;;5059001;28;20029;-73
2021/04/21 06:00:48;;;;;;;12.88;8.93;;;8.40;92.00;;;;;;5074542;28;20017;-73
2021/04/21 06:03:14;;;;;;;10.15;7.40;;;8.40;92.00;;;;;;5070082;28;20013;-73
2021/04/21 06:05:40;;;;;;;7.68;5.75;;;8.50;91.80;;;;;;5079533;28;20404;-73
2021/04/21 06:08:12;;;;;;;14.32;9.05;;;8.50;91.80;;;;;;5074972;28;20013;-73
2021/04/21 06:10:38;;;;;;;14.70;9.60;;;8.50;91.70;;;;;;5056897;28;20020;-73
2021/04/21 06:13:04;;;;;;;13.73;9.38;;;8.50;91.70;;;;;;5061731;28;20025;-73
2021/04/21 06:15:31;;;;;;;16.70;11.48;;;8.50;91.80;;;;;;5055757;28;20017;-73
2021/04/21 06:18:01;;;;;;;11.52;8.80;;;8.50;91.80;;;;;;5061409;28;20121;-73
2021/04/21 06:20:33;;;;;;;14.80;8.90;;;8.60;91.90;;;;;;5060878;28;20301;-73
2021/04/21 06:23:15;;;;;;;15.48;10.15;;;8.70;91.70;;;;;;5065670;28;20013;-73
2021/04/21 06:25:45;;;;;;;15.15;9.90;;;8.70;91.70;;;;;;5044592;28;20025;-73
2021/04/21 06:28:12;;;;;;;13.20;8.45;;;8.80;91.20;;;;;;5047766;28;20032;-73
2021/04/21 06:30:38;;;;;;;11.75;6.93;;;8.80;90.80;;;;;;5040263;28;20083;-73
2021/04/21 06:33:05;;;;;;;14.77;8.25;;;8.80;90.50;;;;;;5039801;28;20106;-73
2021/04/21 06:35:31;;;;;;;11.43;7.75;;;8.70;90.40;;;;;;5043832;28;20132;-74
2021/04/21 06:37:57;;;;;;;10.50;6.03;;;8.70;90.40;;;;;;5053501;28;20044;-74
2021/04/21 06:40:30;;;;;;;8.52;5.40;;;8.80;90.50;;;;;;5042887;28;20040;-74
2021/04/21 06:42:56;;;;;;;10.25;5.90;;;8.90;90.30;;;;;;5051391;28;20032;-74
2021/04/21 06:45:26;;;;;;;11.95;5.70;;;9.10;90.20;;;;;;5058824;28;20021;-74
2021/04/21 06:47:53;;;;;;;7.53;4.32;;;9.20;89.80;;;;;;5037815;28;20543;-74
2021/04/21 06:50:19;;;;;;;6.93;3.65;;;9.40;88.80;;;;;;5034524;28;20027;-74
2021/04/21 06:52:44;;;;;;;9.32;4.78;;;9.40;88.40;;;;;;5035150;28;20021;-74
2021/04/21 06:55:15;;;;;;;9.95;4.65;;;9.40;87.00;;;;;;5008093;28;20698;-74
2021/04/21 06:57:41;;;;;;;9.90;4.20;;;9.40;86.50;;;;;;5026237;28;20723;-74
2021/04/21 07:00:07;;;;;;;7.65;4.00;;;9.60;85.40;;;;;;5035703;28;20023;-74
2021/04/21 07:02:39;;;;;;;7.13;3.47;;;10.40;83.60;;;;;;5040520;28;20086;-74
2021/04/21 07:05:39;;;;;;;7.20;4.13;;;11.40;79.90;;;;;;5054999;28;20092;-74
2021/04/21 07:08:08;;;;;;;7.75;3.55;;;11.80;77.60;;;;;;5052475;28;20013;-74
2021/04/21 07:10:37;;;;;;;6.03;3.50;;;12.00;75.00;;;;;;5044484;28;21231;-74
2021/04/21 07:13:04;;;;;;;7.30;2.92;;;11.90;73.00;;;;;;5047891;28;20036;-74
2021/04/21 07:15:30;;;;;;;7.78;3.05;;;12.30;71.70;;;;;;5059254;28;20381;-74
2021/04/21 07:17:56;;;;;;;8.15;3.45;;;12.40;71.20;;;;;;5055445;28;20013;-75
2021/04/21 07:20:22;;;;;;;6.93;2.97;;;12.50;70.20;;;;;;5041872;28;20025;-73
2021/04/21 07:22:47;;;;;;;5.40;2.67;;;12.90;69.10;;;;;;5048948;28;20017;-74
2021/04/21 07:25:14;;;;;;;8.25;3.40;;;13.10;68.50;;;;;;5049420;28;20029;-75
2021/04/21 07:27:47;;;;;;;6.72;3.35;;;12.90;69.60;;;;;;5034738;28;20020;-75
2021/04/21 07:30:13;;;;;;;7.30;2.78;;;12.90;69.10;;;;;;5031339;28;20025;-74
2021/04/21 07:32:43;;;;;;;5.90;3.00;;;13.20;68.30;;;;;;5054900;28;20396;-74
2021/04/21 07:35:15;;;;;;;8.40;2.95;;;13.10;67.30;;;;;;5044225;28;20033;-74
2021/04/21 07:37:42;;;;;;;8.07;3.25;;;13.20;68.00;;;;;;5044120;28;20024;-74
2021/04/21 07:40:21;;;;;;;7.30;3.72;;;12.60;66.90;;;;;;5046530;28;20367;-76
2021/04/21 07:42:47;;;;;;;8.55;3.15;;;11.40;69.90;;;;;;5032803;28;20021;-76
2021/04/21 07:45:13;;;;;;;6.07;2.72;;;10.90;72.40;;;;;;5045735;28;20047;-75
2021/04/21 07:47:39;;;;;;;5.78;2.22;;;10.70;71.30;;;;;;5018167;28;20017;-75
2021/04/21 07:50:05;;;;;;;9.65;3.53;;;10.70;72.20;;;;;;4973546;28;20098;-75
2021/04/21 07:52:31;;;;;;;6.80;2.80;;;10.40;73.80;;;;;;5003340;28;20032;-75
2021/04/21 07:55:13;;;;;;;7.55;2.70;;;10.40;75.20;;;;;;4989003;28;20166;-74
2021/04/21 07:57:39;;;;;;;;;;;10.20;76.00;;;;;;4982831;28;20120;-75
2021/04/21 08:00:08;;;;;;;11.70;3.15;;;10.20;76.40;;;;;;4985592;28;19912;-72
2021/04/21 08:02:35;;;;;;;8.43;2.42;;;10.00;74.60;;;;;;4970617;28;20016;-75
2021/04/21 08:05:06;;;;;;;6.03;1.67;;;10.30;71.50;;;;;;4964865;28;20702;-74
2021/04/21 08:08:00;;;;;;;8.25;1.67;;;10.90;68.80;;;;;;4970637;28;20028;-76
2021/04/21 08:10:28;;;;;;;7.55;1.50;;;10.70;67.30;;;;;;4923674;28;20397;-78
2021/04/21 08:12:55;;;;;;;6.60;1.70;;;10.80;68.30;;;;;;4985957;28;20135;-76
2021/04/21 08:15:34;;;;;;;9.45;2.17;;;10.80;69.80;;;;;;4965210;28;20040;-75
2021/04/21 08:18:01;;;;;;;5.82;1.80;;;10.70;69.60;;;;;;4968785;28;20114;-77
2021/04/21 08:20:30;;;;;;;6.18;1.70;;;11.70;66.90;;;;;;4971454;28;21287;-73
2021/04/21 08:22:57;;;;;;;9.18;2.08;;;11.60;66.20;;;;;;4977751;28;20021;-75
2021/04/21 08:25:22;;;;;;;7.30;1.70;;;11.10;66.10;;;;;;4990097;28;20013;-74
2021/04/21 08:27:48;;;;;;;6.05;1.60;;;10.80;67.40;;;;;;4969498;28;20106;-74
2021/04/21 08:30:15;;;;;;;7.32;1.80;;;10.90;67.90;;;;;;4970410;28;20110;-75
2021/04/21 08:32:41;;;;;;;5.90;1.58;;;10.70;67.80;;;;;;4996866;28;20020;-74
2021/04/21 08:35:07;;;;;;;7.90;2.00;;;10.70;67.00;;;;;;5034422;28;20084;-74
2021/04/21 08:37:33;;;;;;;6.90;1.58;;;10.60;67.60;;;;;;5019493;28;20020;-74
2021/04/21 08:39:59;;;;;;;4.72;1.38;;;10.90;67.20;;;;;;5020505;28;20021;-74
2021/04/21 08:42:24;;;;;;;6.65;1.73;;;11.90;66.00;;;;;;5008481;28;20730;-74
2021/04/21 08:44:50;;;;;;;7.53;1.55;;;12.50;63.40;;;;;;5013054;28;20041;-74
2021/04/21 08:47:16;;;;;;;8.07;1.83;;;12.30;61.80;;;;;;5001203;28;20191;-73
2021/04/21 08:49:43;;;;;;;8.43;1.73;;;11.80;62.60;;;;;;5019512;28;20162;-74
2021/04/21 08:52:09;;;;;;;8.80;2.00;;;11.80;62.70;;;;;;5017736;28;22220;-75
2021/04/21 08:54:35;;;;;;;7.68;1.65;;;11.70;64.00;;;;;;4998064;28;20045;-71
2021/04/21 08:57:01;;;;;;;6.07;1.42;;;11.50;64.80;;;;;;5017648;28;20041;-73
2021/04/21 08:59:27;;;;;;;13.40;2.00;;;11.40;64.80;;;;;;5019594;28;20021;-73
2021/04/21 09:01:52;;;;;;;6.43;1.75;;;11.30;63.60;;;;;;5002696;28;20078;-74
2021/04/21 09:04:18;;;;;;;6.00;1.48;;;11.40;62.30;;;;;;5031484;28;20637;-74
2021/04/21 09:06:46;;;;;;;8.85;1.67;;;11.70;61.00;;;;;;4998157;28;20021;-74
2021/04/21 09:09:15;;;;;;;7.78;2.00;;;11.70;60.60;;;;;;4988602;28;20944;-74
2021/04/21 09:11:42;;;;;;;5.85;1.60;;;11.30;62.70;;;;;;4983656;28;20085;-75
2021/04/21 09:14:08;;;;;;;8.65;2.00;;;11.30;64.60;;;;;;4972114;28;20710;-75
2021/04/21 09:16:33;;;;;;;5.93;1.63;;;11.10;64.70;;;;;;4964286;28;20012;-76
2021/04/21 09:18:59;;;;;;;6.82;1.80;;;11.20;65.00;;;;;;4977794;28;20590;-75
2021/04/21 09:21:29;;;;;;;7.60;1.90;;;11.20;65.50;;;;;;4967611;28;20017;-75
2021/04/21 09:23:55;;;;;;;11.18;2.30;;;11.50;63.80;;;;;;4971930;28;20877;-74
2021/04/21 09:26:28;;;;;;;10.35;2.20;;;11.20;63.70;;;;;;4989833;28;20314;-75
2021/04/21 09:28:54;;;;;;;8.90;2.05;;;10.90;64.60;;;;;;4988258;28;20765;-76
2021/04/21 09:31:21;;;;;;;9.07;1.95;;;11.20;65.10;;;;;;5000004;28;20020;-76
2021/04/21 09:33:47;;;;;;;7.13;2.20;;;11.10;64.40;;;;;;4991678;28;20528;-76
2021/04/21 09:36:35;;;;;;;8.20;1.77;;;11.00;65.40;;;;;;5015972;28;20021;-74
2021/04/21 09:39:27;;;;;;;3.78;1.20;;;10.80;66.20;;;;;;4997497;28;20131;-76
2021/04/21 09:42:00;;;;;;;5.05;1.30;;;11.10;65.90;;;;;;5007569;28;20372;-78
2021/04/21 09:44:32;;;;;;;6.05;1.17;;;11.20;61.90;;;;;;4987463;28;20096;-77
2021/04/21 09:46:58;;;;;;;;;;;11.90;58.80;;;;;;5012191;28;20036;-79
2021/04/21 09:49:30;;;;;;;9.27;1.45;;;12.80;57.50;;;;;;5008013;28;20197;-78
2021/04/21 09:51:58;;;;;;;3.83;1.08;;;12.20;55.50;;;;;;4990698;28;21790;-79
2021/04/21 09:54:30;;;;;;;5.22;1.35;;;13.10;56.00;;;;;;5007628;28;20049;-77
2021/04/21 09:57:32;;;;;;;3.40;1.30;;;12.90;55.20;;;;;;4998069;28;20020;-76
2021/04/21 09:59:58;;;;;;;6.05;1.73;;;12.90;56.00;;;;;;4945873;28;21801;-77
2021/04/21 10:02:32;;;;;;;7.28;1.60;;;12.60;54.70;;;;;;4943592;28;20817;-78
2021/04/21 10:05:18;;;;;;;5.65;1.60;;;12.40;55.20;;;;;;4924347;28;20105;-77
2021/04/21 10:07:44;;;;;;;4.00;1.20;;;12.20;54.30;;;;;;4915740;28;20789;-78
2021/04/21 10:10:10;;;;;;;6.03;1.48;;;13.20;54.80;;;;;;4913041;28;20072;-76
2021/04/21 10:12:39;;;;;;;7.57;1.73;;;13.80;53.10;;;;;;4939371;28;20014;-75
2021/04/21 10:15:09;;;;;;;3.72;1.15;;;13.10;51.30;;;;;;4920945;28;20191;-76
2021/04/21 10:17:45;;;;;;;7.55;1.48;;;12.90;51.50;;;;;;4930974;28;21435;-78
2021/04/21 10:20:15;;;;;;;3.58;1.38;;;13.70;49.20;;;;;;4933841;28;20754;-76
2021/04/21 10:22:42;;;;;;;2.85;0.90;;;14.50;48.00;;;;;;4940917;28;20026;-78
2021/04/21 10:25:08;;;;;;;4.25;1.15;;;15.50;46.10;;;;;;4928549;28;20021;-78
2021/04/21 10:27:35;;;;;;;4.68;1.45;;;15.30;45.00;;;;;;4937081;28;20123;-78
2021/04/21 10:30:01;;;;;;;7.28;2.25;;;14.90;45.70;;;;;;4948876;28;23794;-76
2021/04/21 10:32:26;;;;;;;6.53;1.85;;;14.50;46.90;;;;;;4919219;28;20017;-77
2021/04/21 10:34:52;;;;;;;6.35;1.60;;;14.70;46.30;;;;;;4929590;28;20075;-77
2021/04/21 10:37:18;;;;;;;3.92;1.42;;;13.90;49.30;;;;;;4973617;28;20131;-78
2021/04/21 10:39:45;;;;;;;4.03;1.33;;;14.30;50.60;;;;;;4967448;28;21677;-77
2021/04/21 10:42:17;;;;;;;3.45;1.17;;;14.90;51.10;;;;;;4998029;28;20021;-77
2021/04/21 10:44:44;;;;;;;3.95;1.23;;;14.30;51.00;;;;;;4957959;28;21194;-77
2021/04/21 10:47:11;;;;;;;6.07;1.70;;;13.80;48.70;;;;;;5004900;28;20107;-78
2021/04/21 10:49:50;;;;;;;7.97;2.00;;;13.30;50.00;;;;;;4979389;28;20012;-76
2021/04/21 10:52:19;;;;;;;6.30;1.50;;;13.40;47.80;;;;;;4992114;28;20036;-77
2021/04/21 10:54:46;;;;;;;5.63;1.23;;;13.50;47.50;;;;;;4999745;28;20075;-77
2021/04/21 10:58:01;;;;;;;2.20;1.00;;;13.50;48.80;;;;;;4996996;28;20023;-75
2021/04/21 11:00:28;;;;;;;5.97;1.63;;;13.60;48.50;;;;;;4983814;28;20105;-77
2021/04/21 11:03:04;;;;;;;5.47;1.38;;;14.50;47.40;;;;;;4971304;28;21593;-77
2021/04/21 11:05:44;;;;;;;3.63;1.40;;;13.60;46.70;;;;;;4988241;28;20017;-79
2021/04/21 11:08:11;;;;;;;4.90;1.33;;;12.90;48.70;;;;;;4981876;28;20017;-76
2021/04/21 11:10:46;;;;;;;4.63;1.48;;;13.00;49.30;;;;;;4985775;28;20013;-75
2021/04/21 11:13:38;;;;;;;6.80;1.52;;;13.10;48.60;;;;;;4991853;28;20046;-76
2021/04/21 11:16:24;;;;;;;4.53;1.40;;;13.00;48.90;;;;;;4983961;28;20869;-76
2021/04/21 11:18:49;;;;;;;2.97;1.10;;;13.10;48.60;;;;;;4986373;28;20037;-75
2021/04/21 11:21:22;;;;;;;8.07;1.98;;;13.00;48.90;;;;;;5019757;28;20139;-74
2021/04/21 11:24:01;;;;;;;5.93;1.63;;;12.50;47.80;;;;;;4964166;28;20175;-75
2021/04/21 11:26:27;;;;;;;7.95;1.80;;;12.40;48.50;;;;;;4927544;28;20386;-76
2021/04/21 11:29:03;;;;;;;7.03;1.70;;;12.40;48.00;;;;;;4953699;28;20802;-76
2021/04/21 11:31:41;;;;;;;5.53;1.27;;;12.50;47.90;;;;;;4961846;28;20023;-78
2021/04/21 11:34:13;;;;;;;14.10;2.28;;;12.90;48.50;;;;;;4972050;28;20733;-80
2021/04/21 11:36:40;;;;;;;7.55;1.90;;;12.60;45.60;;;;;;4975912;28;20421;-80
2021/04/21 11:39:05;;;;;;;4.85;1.27;;;12.60;47.60;;;;;;4980113;28;20124;-78
2021/04/21 11:41:47;;;;;;;7.90;2.22;;;13.00;47.90;;;;;;4982731;28;20147;-78
2021/04/21 11:44:47;;;;;;;8.70;2.10;;;12.80;48.30;;;;;;5035130;28;20009;-81
2021/04/21 11:47:54;;;;;;;9.43;2.10;;;12.80;48.40;;;;;;4994875;28;20360;-77
2021/04/21 11:50:28;;;;;;;5.18;1.83;;;12.60;46.80;;;;;;4970855;28;20538;-78
2021/04/21 11:53:06;;;;;;;5.07;1.50;;;12.30;46.50;;;;;;4977124;28;20252;-74
2021/04/21 11:55:39;;;;;;;11.60;3.03;;;11.80;46.20;;;;;;4978095;28;20402;-74
2021/04/21 11:58:18;;;;;;;6.65;1.52;;;11.50;45.20;;;;;;4994929;28;20135;-76
2021/04/21 12:01:04;;;;;;;3.30;1.10;;;11.50;46.90;;;;;;4981808;28;20213;-75
2021/04/21 12:03:32;;;;;;;4.75;1.20;;;12.20;49.00;;;;;;4960897;28;20017;-78
2021/04/21 12:06:09;;;;;;;4.00;1.30;;;12.60;48.90;;;;;;4961161;28;20643;-74
2021/04/21 12:08:44;;;;;;;4.03;1.40;;;12.90;47.40;;;;;;4982551;28;20038;-75
2021/04/21 12:11:10;;;;;;;5.05;1.25;;;12.90;46.30;;;;;;4994416;28;20024;-76
2021/04/21 12:13:36;;;;;;;4.20;1.20;;;12.80;47.60;;;;;;5017651;28;20171;-75
2021/04/21 12:16:14;;;;;;;4.30;1.20;;;12.80;49.10;;;;;;4989103;28;20364;-75
2021/04/21 12:18:40;;;;;;;7.53;1.58;;;12.70;49.20;;;;;;4997030;28;20937;-74
2021/04/21 12:21:29;;;;;;;8.40;1.52;;;12.70;48.30;;;;;;5012446;28;20028;-75
2021/04/21 12:24:03;;;;;;;5.07;1.10;;;12.80;48.20;;;;;;4982773;28;20040;-74
2021/04/21 12:26:30;;;;;;;4.22;1.20;;;12.90;48.00;;;;;;4965127;28;20027;-75
2021/04/21 12:28:58;;;;;;;3.60;1.02;;;12.70;46.90;;;;;;4970902;28;20116;-74
2021/04/21 12:31:24;;;;;;;14.15;3.47;;;12.70;47.30;;;;;;4972957;28;20103;-75
2021/04/21 12:33:55;;;;;;;17.33;1.83;;;12.50;47.90;;;;;;5002224;28;20040;-73
2021/04/21 12:36:34;;;;;;;29.25;2.50;;;12.50;46.60;;;;;;5018034;28;20771;-75
2021/04/21 12:39:14;;;;;;;8.40;1.52;;;12.50;46.80;;;;;;5009181;28;20045;-75
2021/04/21 12:41:41;;;;;;;4.05;1.00;;;12.20;48.70;;;;;;5023221;28;20013;-75
2021/04/21 12:44:20;;;;;;;3.78;1.05;;;12.60;48.50;;;;;;4993666;28;20122;-74
2021/04/21 12:46:49;;;;;;;6.30;1.20;;;12.90;47.60;;;;;;5007348;28;20039;-74
2021/04/21 12:49:15;;;;;;;9.00;1.35;;;12.40;45.70;;;;;;4997443;28;20106;-75
2021/04/21 12:51:46;;;;;;;5.60;0.95;;;11.70;47.20;;;;;;4978039;28;21646;-75
2021/04/21 12:54:37;;;;;;;5.22;1.10;;;11.50;48.00;;;;;;5007399;28;20037;-74
2021/04/21 12:57:04;;;;;;;13.98;1.60;;;11.20;47.80;;;;;;5036081;28;20079;-75
2021/04/21 12:59:41;;;;;;;7.68;1.15;;;11.10;49.70;;;;;;5056744;28;20012;-75
2021/04/21 13:02:07;;;;;;;7.72;1.02;;;11.10;49.70;;;;;;5051207;28;20016;-75
2021/04/21 13:04:37;;;;;;;12.68;1.50;;;11.10;50.00;;;;;;5035097;28;20343;-75
2021/04/21 13:07:16;;;;;;;3.78;0.75;;;11.30;50.60;;;;;;5051305;28;20036;-75
2021/04/21 13:09:41;;;;;;;3.45;1.00;;;11.50;51.50;;;;;;5080404;28;20097;-75
2021/04/21 13:12:11;;;;;;;5.20;0.90;;;11.80;51.10;;;;;;5047328;28;20092;-74
2021/04/21 13:14:43;;;;;;;6.22;1.25;;;11.80;51.40;;;;;;5034135;28;20145;-75
2021/04/21 13:17:10;;;;;;;8.27;1.50;;;11.90;50.00;;;;;;5052152;28;20103;-75
2021/04/21 13:19:49;;;;;;;4.75;1.20;;;11.40;49.60;;;;;;5048241;28;20013;-74